Time;durP1;ratioP1;P1;durP2;ratioP2;P2;SDS_P1;SDS_P2;PMS_P1;PMS_P2;Temp;Humidity;BMP_temperature;BMP_pressure;BME280_temperature;BME280_humidity;BME280_pressure;Samples;Min_cycle;Max_cycle;Signal;HPM_P1;HPM_P2
2022/10/03 00:01:25;;;;;;;8.38;2.00;;;;;;;;;;5070765;28;20039;-69
2022/10/03 00:03:53;;;;;;;12.93;2.42;;;;;;;;;;5072272;28;20090;-69
2022/10/03 00:06:23;;;;;;;9.52;1.90;;;;;;;;;;5069161;28;20608;-69
2022/10/03 00:08:52;;;;;;;10.25;2.47;;;;;;;;;;5066514;28;20090;-69
2022/10/03 00:11:21;;;;;;;13.68;2.67;;;;;;;;;;5067831;28;20082;-69
2022/10/03 00:13:56;;;;;;;13.38;2.33;;;;;;;;;;5071447;28;20036;-68
2022/10/03 00:16:35;;;;;;;11.30;2.35;;;;;;;;;;5071697;28;20036;-68
2022/10/03 00:19:16;;;;;;;10.07;1.95;;;;;;;;;;5059380;28;20121;-69
2022/10/03 00:21:52;;;;;;;9.85;2.00;;;;;;;;;;5066098;28;20401;-68
2022/10/03 00:24:25;;;;;;;8.20;2.17;;;;;;;;;;5080663;28;20115;-68
2022/10/03 00:27:05;;;;;;;12.00;2.50;;;;;;;;;;5070247;28;20045;-68
2022/10/03 00:29:50;;;;;;;12.27;2.53;;;;;;;;;;5071344;28;20495;-68
2022/10/03 00:32:16;;;;;;;13.25;2.58;;;;;;;;;;5069975;28;20041;-69
2022/10/03 00:34:45;;;;;;;9.25;2.30;;;;;;;;;;5066024;28;20159;-68
2022/10/03 00:37:11;;;;;;;9.02;2.30;;;;;;;;;;5071666;28;20125;-68
2022/10/03 00:40:05;;;;;;;12.05;2.53;;;;;;;;;;5068875;28;20087;-68
2022/10/03 00:42:38;;;;;;;8.88;2.15;;;;;;;;;;5069325;28;20040;-69
2022/10/03 00:45:13;;;;;;;9.32;2.20;;;;;;;;;;5071635;28;20082;-69
2022/10/03 00:47:46;;;;;;;10.93;2.30;;;;;;;;;;5058875;28;20520;-69
2022/10/03 00:50:15;;;;;;;12.93;3.15;;;;;;;;;;5069621;28;20041;-68
2022/10/03 00:52:40;;;;;;;7.90;3.05;;;;;;;;;;5069995;28;20044;-69
2022/10/03 00:55:25;;;;;;;6.38;2.10;;;;;;;;;;5071141;28;20111;-69
2022/10/03 00:57:59;;;;;;;13.60;3.13;;;;;;;;;;5070299;28;20090;-68
2022/10/03 01:00:27;;;;;;;7.70;2.47;;;;;;;;;;5068665;28;20611;-69
2022/10/03 01:03:12;;;;;;;12.75;2.25;;;;;;;;;;5070534;28;20045;-68
2022/10/03 01:05:41;;;;;;;9.98;1.98;;;;;;;;;;5066124;28;20082;-69
2022/10/03 01:08:10;;;;;;;8.32;2.15;;;;;;;;;;5071359;28;20044;-69
2022/10/03 01:10:45;;;;;;;9.68;2.50;;;;;;;;;;5068806;28;20067;-69
2022/10/03 01:13:14;;;;;;;7.53;2.83;;;;;;;;;;5069486;28;20060;-68
2022/10/03 01:15:46;;;;;;;12.27;2.70;;;;;;;;;;5070375;28;20043;-69
2022/10/03 01:18:21;;;;;;;8.65;2.22;;;;;;;;;;5070590;28;20037;-69
2022/10/03 01:20:50;;;;;;;7.40;2.47;;;;;;;;;;5070061;28;20047;-68
2022/10/03 01:23:19;;;;;;;13.10;2.28;;;;;;;;;;5068827;28;20036;-68
2022/10/03 01:25:48;;;;;;;8.13;2.20;;;;;;;;;;5070189;28;20047;-69
2022/10/03 01:31:22;;;;;;;10.38;2.47;;;;;;;;;;5068941;28;20044;-69
2022/10/03 01:33:54;;;;;;;8.52;2.13;;;;;;;;;;5069358;28;20115;-69
2022/10/03 01:36:32;;;;;;;6.82;2.10;;;;;;;;;;5067741;28;20094;-69
2022/10/03 01:39:01;;;;;;;9.75;2.50;;;;;;;;;;5069558;28;20436;-68
2022/10/03 01:41:27;;;;;;;13.10;2.70;;;;;;;;;;5071545;28;20833;-69
2022/10/03 01:44:15;;;;;;;9.50;2.35;;;;;;;;;;5069262;28;20119;-68
2022/10/03 01:46:52;;;;;;;11.13;2.58;;;;;;;;;;5057541;28;20051;-69
2022/10/03 01:49:25;;;;;;;9.98;2.33;;;;;;;;;;5070380;28;20048;-69
2022/10/03 01:52:10;;;;;;;11.07;2.50;;;;;;;;;;5069771;28;20097;-68
2022/10/03 01:54:41;;;;;;;13.13;2.25;;;;;;;;;;5067470;28;20040;-68
2022/10/03 01:57:10;;;;;;;6.72;2.40;;;;;;;;;;5069264;28;20037;-69
2022/10/03 01:59:55;;;;;;;7.72;2.30;;;;;;;;;;5070988;28;20048;-68
2022/10/03 02:02:29;;;;;;;8.23;2.33;;;;;;;;;;5067215;28;20048;-69
2022/10/03 02:04:55;;;;;;;16.70;2.75;;;;;;;;;;5066511;28;20119;-68
2022/10/03 02:07:25;;;;;;;6.95;2.10;;;;;;;;;;5070649;28;20115;-68
2022/10/03 02:09:59;;;;;;;12.35;2.22;;;;;;;;;;5070508;28;20048;-68
2022/10/03 02:12:29;;;;;;;11.02;1.98;;;;;;;;;;5074714;28;20410;-68
2022/10/03 02:15:04;;;;;;;9.98;2.28;;;;;;;;;;5074051;28;20047;-68
2022/10/03 02:17:51;;;;;;;13.82;2.40;;;;;;;;;;5073521;28;20052;-69
2022/10/03 02:20:32;;;;;;;12.68;1.95;;;;;;;;;;5074293;28;20096;-68
2022/10/03 02:22:58;;;;;;;9.13;2.03;;;;;;;;;;5073573;28;20119;-71
2022/10/03 02:25:27;;;;;;;10.93;1.88;;;;;;;;;;5067181;22;20045;-67
2022/10/03 02:28:11;;;;;;;6.80;2.10;;;;;;;;;;5052329;28;20139;-67
2022/10/03 02:30:53;;;;;;;9.25;2.22;;;;;;;;;;5043683;28;20041;-67
2022/10/03 02:33:37;;;;;;;12.85;2.60;;;;;;;;;;5030993;28;20068;-67
2022/10/03 02:36:24;;;;;;;7.50;2.45;;;;;;;;;;5047510;28;20443;-67
2022/10/03 02:39:08;;;;;;;11.10;2.60;;;;;;;;;;5048924;28;20037;-67
2022/10/03 02:41:53;;;;;;;10.10;2.42;;;;;;;;;;5025891;28;20182;-68
2022/10/03 02:44:19;;;;;;;8.15;2.08;;;;;;;;;;5046008;28;20049;-67
2022/10/03 02:47:04;;;;;;;10.13;1.90;;;;;;;;;;5040657;28;20048;-67
2022/10/03 02:49:36;;;;;;;10.10;3.00;;;;;;;;;;5046255;28;20094;-67
2022/10/03 02:52:02;;;;;;;8.38;1.90;;;;;;;;;;5041210;28;20152;-67
2022/10/03 02:54:28;;;;;;;12.43;2.50;;;;;;;;;;5042159;28;20033;-67
2022/10/03 02:57:15;;;;;;;9.48;1.98;;;;;;;;;;5057710;28;20033;-67
2022/10/03 03:00:01;;;;;;;9.68;2.38;;;;;;;;;;5051255;28;20548;-67
2022/10/03 03:02:45;;;;;;;9.52;2.45;;;;;;;;;;5051270;28;20106;-67
2022/10/03 03:05:21;;;;;;;6.47;1.63;;;;;;;;;;5046736;28;20045;-67
2022/10/03 03:08:02;;;;;;;10.35;2.00;;;;;;;;;;5049310;28;20045;-67
2022/10/03 03:10:44;;;;;;;13.02;2.60;;;;;;;;;;5034624;28;20483;-67
2022/10/03 03:13:29;;;;;;;10.57;2.40;;;;;;;;;;5052145;28;20047;-67
2022/10/03 03:16:13;;;;;;;11.30;2.40;;;;;;;;;;5053366;28;20041;-67
2022/10/03 03:18:44;;;;;;;10.77;2.17;;;;;;;;;;5030265;28;20123;-68
2022/10/03 03:21:15;;;;;;;12.73;2.47;;;;;;;;;;5052208;28;20056;-67
2022/10/03 03:23:41;;;;;;;10.60;2.53;;;;;;;;;;5052125;28;20044;-67
2022/10/03 03:26:27;;;;;;;13.70;2.53;;;;;;;;;;5052976;28;20099;-67
2022/10/03 03:29:09;;;;;;;10.20;2.10;;;;;;;;;;5045091;28;20510;-67
2022/10/03 03:31:44;;;;;;;11.52;2.03;;;;;;;;;;5051882;28;20045;-67
2022/10/03 03:34:21;;;;;;;6.75;2.00;;;;;;;;;;5052955;28;20037;-67
2022/10/03 03:36:47;;;;;;;7.72;1.67;;;;;;;;;;5051802;28;20079;-67
2022/10/03 03:39:22;;;;;;;8.95;1.83;;;;;;;;;;5051679;28;20044;-67
2022/10/03 03:41:51;;;;;;;9.95;2.35;;;;;;;;;;5025260;28;20053;-67
2022/10/03 03:44:30;;;;;;;10.38;2.13;;;;;;;;;;5049007;28;20047;-67
2022/10/03 03:47:13;;;;;;;9.05;2.05;;;;;;;;;;5053037;28;20037;-68
2022/10/03 03:49:45;;;;;;;5.63;1.95;;;;;;;;;;5045080;28;20048;-67
2022/10/03 03:52:17;;;;;;;9.90;2.35;;;;;;;;;;5031376;28;20495;-67
2022/10/03 03:55:06;;;;;;;6.75;2.00;;;;;;;;;;5052876;28;20112;-68
2022/10/03 03:57:48;;;;;;;9.80;2.10;;;;;;;;;;5051737;28;20495;-67
2022/10/03 04:00:22;;;;;;;10.43;2.13;;;;;;;;;;5050583;28;20049;-67
2022/10/03 04:03:01;;;;;;;6.85;2.03;;;;;;;;;;5030534;28;20128;-67
2022/10/03 04:05:43;;;;;;;11.90;2.53;;;;;;;;;;5050327;28;20048;-67
2022/10/03 04:08:14;;;;;;;12.63;2.10;;;;;;;;;;5052051;28;20029;-67
2022/10/03 04:10:46;;;;;;;7.18;1.95;;;;;;;;;;5050934;28;20120;-67
2022/10/03 04:13:17;;;;;;;10.80;2.17;;;;;;;;;;5050817;28;20491;-67
2022/10/03 04:15:58;;;;;;;11.27;2.47;;;;;;;;;;5052056;28;20048;-67
2022/10/03 04:18:58;;;;;;;9.73;1.83;;;;;;;;;;5050510;28;20517;-67
2022/10/03 04:21:42;;;;;;;5.63;1.50;;;;;;;;;;5049902;28;20049;-67
2022/10/03 04:24:28;;;;;;;9.48;2.25;;;;;;;;;;5047383;28;20052;-67
2022/10/03 04:27:12;;;;;;;7.20;1.70;;;;;;;;;;5052114;28;20041;-67
2022/10/03 04:29:48;;;;;;;8.90;1.92;;;;;;;;;;5044437;28;20582;-67
2022/10/03 04:32:33;;;;;;;13.05;2.30;;;;;;;;;;5047772;28;20040;-67
2022/10/03 04:35:08;;;;;;;11.65;1.85;;;;;;;;;;5048484;28;20036;-68
2022/10/03 04:37:43;;;;;;;9.85;2.10;;;;;;;;;;5052813;28;20098;-67
2022/10/03 04:40:17;;;;;;;12.15;2.35;;;;;;;;;;5031244;28;20152;-68
2022/10/03 04:42:57;;;;;;;7.25;1.85;;;;;;;;;;5051437;28;20044;-67
2022/10/03 04:45:38;;;;;;;10.18;1.75;;;;;;;;;;5050982;28;20040;-67
2022/10/03 04:48:23;;;;;;;10.68;2.08;;;;;;;;;;5050429;28;20045;-67
2022/10/03 04:50:59;;;;;;;8.00;2.20;;;;;;;;;;5046960;28;20048;-67
2022/10/03 04:53:41;;;;;;;5.95;2.10;;;;;;;;;;5052073;28;20513;-67
2022/10/03 04:56:19;;;;;;;9.02;2.08;;;;;;;;;;5048866;28;20036;-68
2022/10/03 04:59:04;;;;;;;7.25;1.80;;;;;;;;;;5048254;28;20056;-68
2022/10/03 05:01:45;;;;;;;4.57;1.60;;;;;;;;;;5029147;28;20094;-68
2022/10/03 05:04:20;;;;;;;5.78;1.90;;;;;;;;;;5042544;28;20045;-67
2022/10/03 05:07:01;;;;;;;6.68;1.88;;;;;;;;;;5049285;28;20238;-67
2022/10/03 05:09:35;;;;;;;5.03;1.35;;;;;;;;;;5048542;28;20056;-67
2022/10/03 05:12:02;;;;;;;5.03;2.00;;;;;;;;;;5036703;28;20074;-68
2022/10/03 05:14:31;;;;;;;7.93;1.67;;;;;;;;;;5033620;28;20544;-67
2022/10/03 05:17:07;;;;;;;9.82;1.48;;;;;;;;;;5052105;28;20037;-67
2022/10/03 05:19:33;;;;;;;6.28;1.80;;;;;;;;;;5042430;28;20041;-67
2022/10/03 05:22:09;;;;;;;5.93;1.60;;;;;;;;;;5049424;28;20453;-68
2022/10/03 05:24:43;;;;;;;7.68;1.70;;;;;;;;;;5049432;28;20051;-67
2022/10/03 05:27:19;;;;;;;7.18;1.85;;;;;;;;;;5049380;28;20072;-67
2022/10/03 05:29:45;;;;;;;9.40;1.83;;;;;;;;;;5041470;28;20186;-67
2022/10/03 05:32:30;;;;;;;4.57;1.58;;;;;;;;;;5050597;28;20124;-67
2022/10/03 05:35:12;;;;;;;5.93;1.48;;;;;;;;;;5050300;28;20085;-68
2022/10/03 05:37:38;;;;;;;6.47;1.55;;;;;;;;;;5029477;28;20045;-67
2022/10/03 05:40:24;;;;;;;8.43;1.88;;;;;;;;;;5049307;28;20116;-67
2022/10/03 05:42:51;;;;;;;6.43;1.60;;;;;;;;;;5027596;28;20067;-67
2022/10/03 05:45:23;;;;;;;9.35;1.73;;;;;;;;;;5050695;28;20083;-67
2022/10/03 05:48:08;;;;;;;6.78;1.92;;;;;;;;;;5039364;28;20403;-67
2022/10/03 05:50:35;;;;;;;5.57;1.60;;;;;;;;;;5031207;28;20045;-67
2022/10/03 05:53:13;;;;;;;4.85;1.65;;;;;;;;;;5050831;28;20094;-67
2022/10/03 05:55:39;;;;;;;5.60;1.50;;;;;;;;;;5042537;28;20091;-68
2022/10/03 05:58:24;;;;;;;8.18;2.03;;;;;;;;;;5047030;28;20032;-67
2022/10/03 06:01:06;;;;;;;6.10;1.77;;;;;;;;;;5050617;28;20052;-67
2022/10/03 06:03:36;;;;;;;5.85;1.77;;;;;;;;;;5046984;28;20051;-67
2022/10/03 06:06:23;;;;;;;6.85;1.60;;;;;;;;;;5049520;28;20045;-67
2022/10/03 06:08:49;;;;;;;7.18;2.13;;;;;;;;;;5036599;28;20155;-67
2022/10/03 06:11:24;;;;;;;8.32;1.85;;;;;;;;;;5046322;28;20138;-68
2022/10/03 06:13:53;;;;;;;11.73;2.17;;;;;;;;;;5044742;28;20045;-67
2022/10/03 06:16:37;;;;;;;8.02;2.05;;;;;;;;;;5050698;28;20041;-67
2022/10/03 06:19:05;;;;;;;8.68;2.00;;;;;;;;;;5030572;28;20065;-68
2022/10/03 06:21:39;;;;;;;8.60;2.10;;;;;;;;;;5047662;28;20051;-67
2022/10/03 06:24:05;;;;;;;6.30;2.35;;;;;;;;;;5045183;28;20502;-67
2022/10/03 06:26:38;;;;;;;10.60;1.67;;;;;;;;;;5030387;28;20033;-67
2022/10/03 06:29:14;;;;;;;6.80;2.03;;;;;;;;;;5031968;28;20510;-67
2022/10/03 06:31:43;;;;;;;5.90;1.95;;;;;;;;;;5046707;28;20109;-67
2022/10/03 06:34:28;;;;;;;5.95;2.17;;;;;;;;;;5051169;28;20441;-67
2022/10/03 06:36:54;;;;;;;6.47;1.75;;;;;;;;;;5049258;28;20126;-67
2022/10/03 06:39:35;;;;;;;6.15;2.03;;;;;;;;;;5049483;28;20122;-67
2022/10/03 06:42:03;;;;;;;8.82;2.08;;;;;;;;;;5045819;28;20118;-67
2022/10/03 06:44:34;;;;;;;11.52;2.10;;;;;;;;;;5046956;28;20037;-67
2022/10/03 06:47:07;;;;;;;6.70;1.83;;;;;;;;;;5042355;28;20075;-66
2022/10/03 06:49:49;;;;;;;8.40;1.85;;;;;;;;;;5042037;28;20522;-66
2022/10/03 06:52:38;;;;;;;6.88;1.95;;;;;;;;;;5047157;28;20037;-66
2022/10/03 06:55:20;;;;;;;7.65;2.20;;;;;;;;;;5044483;28;20033;-66
2022/10/03 06:58:05;;;;;;;8.18;1.88;;;;;;;;;;5053281;28;20063;-66
2022/10/03 07:00:31;;;;;;;7.82;2.35;;;;;;;;;;5054035;28;20041;-67
2022/10/03 07:03:16;;;;;;;9.13;1.95;;;;;;;;;;5053289;28;20037;-66
2022/10/03 07:06:00;;;;;;;8.52;1.95;;;;;;;;;;5037643;28;20091;-66
2022/10/03 07:08:29;;;;;;;5.82;1.77;;;;;;;;;;5045145;28;20179;-66
2022/10/03 07:11:10;;;;;;;9.73;2.15;;;;;;;;;;5053446;28;20098;-66
2022/10/03 07:13:38;;;;;;;;;;;;;;;;;;5036411;28;20449;-66
2022/10/03 07:16:26;;;;;;;11.38;2.20;;;;;;;;;;5053666;28;20058;-67
2022/10/03 07:19:09;;;;;;;6.75;2.10;;;;;;;;;;5048071;28;20047;-67
2022/10/03 07:21:35;;;;;;;11.98;2.20;;;;;;;;;;5033875;28;20097;-67
2022/10/03 07:24:10;;;;;;;10.88;2.72;;;;;;;;;;5034662;28;20502;-67
2022/10/03 07:26:44;;;;;;;10.95;2.08;;;;;;;;;;5035181;28;20036;-66
2022/10/03 07:29:13;;;;;;;10.65;2.65;;;;;;;;;;5053088;28;20051;-66
2022/10/03 07:31:58;;;;;;;8.95;2.03;;;;;;;;;;5052564;28;20041;-66
2022/10/03 07:34:36;;;;;;;8.95;2.45;;;;;;;;;;5044521;28;20083;-66
2022/10/03 07:40:13;;;;;;;13.13;2.13;;;;;;;;;;5039552;28;20049;-66
2022/10/03 07:42:51;;;;;;;8.57;1.95;;;;;;;;;;5036422;28;20049;-67
2022/10/03 07:45:29;;;;;;;10.27;2.03;;;;;;;;;;5053336;28;20048;-66
2022/10/03 07:47:56;;;;;;;6.05;2.13;;;;;;;;;;5045945;28;20487;-67
2022/10/03 07:50:40;;;;;;;9.73;2.45;;;;;;;;;;5051965;28;20116;-66
2022/10/03 07:53:25;;;;;;;8.88;1.83;;;;;;;;;;5053021;28;20040;-66
2022/10/03 07:56:01;;;;;;;8.73;1.77;;;;;;;;;;5028379;28;20101;-66
2022/10/03 07:58:33;;;;;;;12.77;1.88;;;;;;;;;;5034524;28;20056;-66
2022/10/03 08:00:59;;;;;;;6.30;1.90;;;;;;;;;;5046165;28;20124;-67
2022/10/03 08:03:28;;;;;;;9.25;1.90;;;;;;;;;;5039578;28;20047;-67
2022/10/03 08:06:06;;;;;;;10.57;2.10;;;;;;;;;;5047549;28;20044;-67
2022/10/03 08:08:49;;;;;;;8.07;2.10;;;;;;;;;;5040632;28;20044;-67
2022/10/03 08:11:24;;;;;;;6.90;1.80;;;;;;;;;;5050328;28;20045;-67
2022/10/03 08:13:56;;;;;;;7.38;1.92;;;;;;;;;;5053178;28;20119;-67
2022/10/03 08:16:22;;;;;;;9.00;2.05;;;;;;;;;;5034614;28;20044;-67
2022/10/03 08:19:07;;;;;;;7.18;1.73;;;;;;;;;;5049349;28;20046;-67
2022/10/03 08:21:45;;;;;;;11.02;2.10;;;;;;;;;;5045080;28;20118;-67
2022/10/03 08:24:11;;;;;;;13.50;2.10;;;;;;;;;;5047324;22;20513;-61
2022/10/03 08:26:43;;;;;;;7.65;1.80;;;;;;;;;;5043378;28;20101;-61
2022/10/03 08:29:19;;;;;;;9.75;1.75;;;;;;;;;;5041533;28;20052;-61
2022/10/03 08:31:58;;;;;;;6.40;1.65;;;;;;;;;;5046234;28;20041;-61
2022/10/03 08:34:45;;;;;;;8.63;1.55;;;;;;;;;;5052198;28;20041;-61
2022/10/03 08:37:17;;;;;;;7.00;1.73;;;;;;;;;;5037971;28;20124;-61
2022/10/03 08:39:58;;;;;;;7.50;1.90;;;;;;;;;;5031903;28;20033;-61
2022/10/03 08:42:24;;;;;;;;;;;;;;;;;;5034368;28;20036;-61
2022/10/03 08:44:50;;;;;;;7.80;1.52;;;;;;;;;;5032026;28;19924;-61
2022/10/03 08:47:35;;;;;;;9.75;1.83;;;;;;;;;;5045728;28;21135;-61
2022/10/03 08:50:19;;;;;;;11.27;1.83;;;;;;;;;;5052270;28;20037;-61
2022/10/03 08:52:46;;;;;;;8.05;1.40;;;;;;;;;;5042038;28;20834;-62
2022/10/03 08:55:31;;;;;;;6.65;1.25;;;;;;;;;;5050948;28;20430;-61
2022/10/03 08:58:03;;;;;;;9.88;1.48;;;;;;;;;;5046957;28;20132;-61
2022/10/03 09:00:59;;;;;;;7.72;1.45;;;;;;;;;;5044300;28;20470;-61
2022/10/03 09:03:28;;;;;;;6.63;1.27;;;;;;;;;;5031811;28;20045;-61
2022/10/03 09:06:00;;;;;;;6.63;1.20;;;;;;;;;;5037509;28;20036;-61
2022/10/03 09:08:45;;;;;;;8.95;1.40;;;;;;;;;;5052821;28;20045;-61
2022/10/03 09:11:17;;;;;;;7.32;1.38;;;;;;;;;;5033133;28;20465;-61
2022/10/03 09:13:49;;;;;;;6.35;1.30;;;;;;;;;;5053301;28;20032;-61
2022/10/03 09:16:30;;;;;;;4.88;1.05;;;;;;;;;;5050572;28;20037;-61
2022/10/03 09:18:56;;;;;;;;;;;;;;;;;;5043937;28;20502;-62
2022/10/03 09:21:23;;;;;;;9.77;1.33;;;;;;;;;;5052055;28;19964;-61
2022/10/03 09:23:55;;;;;;;5.97;1.10;;;;;;;;;;5058010;28;20127;-62
2022/10/03 09:26:44;;;;;;;10.90;1.20;;;;;;;;;;5050030;28;20068;-61
2022/10/03 09:29:29;;;;;;;11.10;1.08;;;;;;;;;;5029433;28;20064;-62
2022/10/03 09:32:13;;;;;;;5.95;1.20;;;;;;;;;;5036601;28;20135;-62
2022/10/03 09:34:59;;;;;;;10.30;1.45;;;;;;;;;;5034026;28;20049;-62
2022/10/03 09:37:43;;;;;;;5.88;1.10;;;;;;;;;;5042177;28;20120;-61
2022/10/03 09:40:15;;;;;;;9.57;1.48;;;;;;;;;;5034085;28;20041;-61
2022/10/03 09:43:00;;;;;;;6.82;1.20;;;;;;;;;;5038639;28;20403;-61
2022/10/03 09:45:35;;;;;;;8.73;1.85;;;;;;;;;;5048025;28;20048;-61
2022/10/03 09:48:10;;;;;;;6.63;1.10;;;;;;;;;;5051614;28;20044;-61
2022/10/03 09:50:55;;;;;;;7.13;1.17;;;;;;;;;;5051220;28;20435;-61
2022/10/03 09:53:47;;;;;;;10.40;1.83;;;;;;;;;;5040026;28;20117;-61
2022/10/03 09:56:25;;;;;;;7.13;1.00;;;;;;;;;;5027366;28;20041;-61
2022/10/03 09:59:06;;;;;;;9.55;1.27;;;;;;;;;;5050171;28;20255;-61
2022/10/03 10:01:56;;;;;;;6.68;1.52;;;;;;;;;;5047262;28;20045;-62
2022/10/03 10:04:31;;;;;;;5.13;1.20;;;;;;;;;;5034810;28;20048;-61
2022/10/03 10:07:16;;;;;;;10.15;1.23;;;;;;;;;;5038800;28;20518;-61
2022/10/03 10:09:42;;;;;;;8.63;1.30;;;;;;;;;;5043466;28;20047;-61
2022/10/03 10:12:17;;;;;;;13.07;1.52;;;;;;;;;;5049949;28;20037;-61
2022/10/03 10:14:52;;;;;;;7.13;1.55;;;;;;;;;;5050798;28;20033;-61
2022/10/03 10:17:37;;;;;;;7.90;1.35;;;;;;;;;;5041840;28;20035;-62
2022/10/03 10:20:22;;;;;;;4.60;1.00;;;;;;;;;;5046811;28;20044;-62
2022/10/03 10:22:51;;;;;;;6.18;0.93;;;;;;;;;;5050208;28;20057;-61
2022/10/03 10:25:35;;;;;;;7.30;1.40;;;;;;;;;;5041601;28;20411;-61
2022/10/03 10:28:01;;;;;;;6.07;1.50;;;;;;;;;;5039297;28;20041;-61
2022/10/03 10:30:36;;;;;;;5.00;1.27;;;;;;;;;;5030894;28;20381;-62
2022/10/03 10:33:03;;;;;;;8.85;1.08;;;;;;;;;;5041834;28;20061;-61
2022/10/03 10:35:50;;;;;;;8.10;1.20;;;;;;;;;;5049212;28;20113;-61
2022/10/03 10:38:36;;;;;;;5.05;1.10;;;;;;;;;;5045405;28;20045;-61
2022/10/03 10:41:20;;;;;;;7.10;1.30;;;;;;;;;;5036748;28;20518;-61
2022/10/03 10:43:50;;;;;;;6.95;1.40;;;;;;;;;;5033602;28;20050;-61
2022/10/03 10:46:22;;;;;;;5.15;1.13;;;;;;;;;;5039972;28;20067;-61
2022/10/03 10:48:54;;;;;;;6.22;0.95;;;;;;;;;;5034344;28;20077;-61
2022/10/03 10:51:23;;;;;;;12.52;1.27;;;;;;;;;;5036522;28;20068;-61
2022/10/03 10:54:07;;;;;;;2.83;0.80;;;;;;;;;;5050946;28;20045;-61
2022/10/03 10:56:52;;;;;;;7.30;1.13;;;;;;;;;;5038723;28;20042;-61
2022/10/03 10:59:46;;;;;;;3.40;0.68;;;;;;;;;;5042626;28;20048;-61
2022/10/03 11:02:30;;;;;;;3.88;0.73;;;;;;;;;;5035355;28;20041;-61
2022/10/03 11:04:59;;;;;;;4.10;1.17;;;;;;;;;;5039699;28;20037;-61
2022/10/03 11:07:25;;;;;;;4.68;1.00;;;;;;;;;;5051008;28;20051;-62
2022/10/03 11:09:51;;;;;;;7.05;1.02;;;;;;;;;;5047190;28;20045;-61
2022/10/03 11:12:19;;;;;;;4.20;0.75;;;;;;;;;;5045763;28;20125;-61
2022/10/03 11:14:47;;;;;;;4.35;0.98;;;;;;;;;;5053854;28;20055;-61
2022/10/03 11:17:19;;;;;;;4.95;1.15;;;;;;;;;;5050877;28;22096;-61
2022/10/03 11:20:01;;;;;;;5.43;0.93;;;;;;;;;;5055200;28;20045;-62
2022/10/03 11:22:43;;;;;;;7.13;1.10;;;;;;;;;;5054417;28;20658;-61
2022/10/03 11:25:09;;;;;;;5.38;1.00;;;;;;;;;;5053415;28;20041;-61
2022/10/03 11:27:41;;;;;;;4.15;0.90;;;;;;;;;;5044204;28;20460;-61
2022/10/03 11:30:17;;;;;;;6.57;1.17;;;;;;;;;;5042684;28;20044;-62
2022/10/03 11:33:01;;;;;;;4.20;0.65;;;;;;;;;;5050357;28;20057;-61
2022/10/03 11:35:46;;;;;;;4.57;1.23;;;;;;;;;;5054242;28;20560;-62
2022/10/03 11:38:19;;;;;;;6.38;1.00;;;;;;;;;;5034282;28;20564;-61
2022/10/03 11:41:00;;;;;;;4.88;1.00;;;;;;;;;;5054041;28;20049;-61
2022/10/03 11:43:26;;;;;;;;;;;;;;;;;;5042125;28;20037;-61
2022/10/03 11:46:06;;;;;;;4.85;0.98;;;;;;;;;;5044506;28;19963;-62
2022/10/03 11:48:35;;;;;;;4.53;1.48;;;;;;;;;;5037327;28;20051;-61
2022/10/03 11:51:05;;;;;;;5.90;1.05;;;;;;;;;;5052004;28;20042;-61
2022/10/03 11:53:31;;;;;;;5.35;0.93;;;;;;;;;;5053462;28;20037;-62
2022/10/03 11:56:03;;;;;;;8.30;1.17;;;;;;;;;;5039831;28;20040;-61
2022/10/03 11:58:52;;;;;;;6.07;1.00;;;;;;;;;;5054563;28;20128;-62
2022/10/03 12:01:25;;;;;;;5.63;1.05;;;;;;;;;;5055982;28;20056;-61
2022/10/03 12:03:53;;;;;;;5.18;0.77;;;;;;;;;;5050859;28;20068;-61
2022/10/03 12:09:23;;;;;;;5.90;1.40;;;;;;;;;;5048754;28;20044;-61
2022/10/03 12:11:57;;;;;;;5.80;0.98;;;;;;;;;;5053660;28;20521;-61
2022/10/03 12:14:34;;;;;;;6.95;1.20;;;;;;;;;;5048181;28;20040;-61
2022/10/03 12:17:09;;;;;;;5.18;0.80;;;;;;;;;;5042575;28;20052;-61
2022/10/03 12:19:38;;;;;;;3.75;1.15;;;;;;;;;;5041962;28;20044;-61
2022/10/03 12:22:16;;;;;;;7.00;1.10;;;;;;;;;;5050488;28;20079;-61
2022/10/03 12:24:44;;;;;;;2.72;1.05;;;;;;;;;;5053305;28;20049;-61
2022/10/03 12:27:10;;;;;;;5.10;0.90;;;;;;;;;;5052183;28;20087;-61
2022/10/03 12:29:38;;;;;;;4.00;0.82;;;;;;;;;;5052824;28;20036;-61
2022/10/03 12:32:04;;;;;;;5.55;1.02;;;;;;;;;;5053437;28;20033;-61
2022/10/03 12:34:36;;;;;;;4.32;0.90;;;;;;;;;;5048019;28;20040;-61
2022/10/03 12:37:02;;;;;;;;;;;;;;;;;;5046153;28;20048;-61
2022/10/03 12:39:28;;;;;;;7.95;1.27;;;;;;;;;;5033507;28;20299;-61
2022/10/03 12:42:13;;;;;;;5.28;1.00;;;;;;;;;;5033125;28;20037;-61
2022/10/03 12:45:06;;;;;;;8.10;0.95;;;;;;;;;;5048407;28;20123;-61
2022/10/03 12:47:32;;;;;;;5.57;0.82;;;;;;;;;;5055010;28;20073;-61
2022/10/03 12:50:05;;;;;;;5.97;1.08;;;;;;;;;;5045569;28;20048;-61
2022/10/03 12:52:34;;;;;;;5.72;1.08;;;;;;;;;;5044682;28;20075;-61
2022/10/03 12:55:11;;;;;;;5.88;1.10;;;;;;;;;;5046419;28;20037;-63
2022/10/03 12:57:55;;;;;;;4.95;1.40;;;;;;;;;;5051750;28;20390;-63
2022/10/03 13:00:22;;;;;;;5.53;1.30;;;;;;;;;;5051840;28;20095;-63
2022/10/03 13:02:48;;;;;;;7.45;1.00;;;;;;;;;;5051255;28;20444;-63
2022/10/03 13:05:21;;;;;;;5.53;1.25;;;;;;;;;;5051418;28;20087;-63
2022/10/03 13:08:06;;;;;;;5.07;1.13;;;;;;;;;;5051509;28;20047;-63
2022/10/03 13:10:41;;;;;;;5.43;1.00;;;;;;;;;;5051166;28;20615;-63
2022/10/03 13:13:26;;;;;;;5.60;0.90;;;;;;;;;;5051568;28;20032;-63
2022/10/03 13:15:55;;;;;;;4.32;1.00;;;;;;;;;;5050634;28;20041;-63
2022/10/03 13:18:27;;;;;;;4.80;1.42;;;;;;;;;;5050553;28;20071;-63
2022/10/03 13:21:12;;;;;;;4.38;1.05;;;;;;;;;;5051033;28;20102;-63
2022/10/03 13:23:42;;;;;;;6.82;1.30;;;;;;;;;;5051229;28;20045;-64
2022/10/03 13:26:14;;;;;;;5.00;0.98;;;;;;;;;;5050356;28;20041;-63
2022/10/03 13:28:41;;;;;;;5.03;0.95;;;;;;;;;;5050627;28;20040;-63
2022/10/03 13:31:15;;;;;;;4.32;0.90;;;;;;;;;;5049830;28;20099;-63
2022/10/03 13:33:43;;;;;;;3.63;0.60;;;;;;;;;;5040284;28;20100;-63
2022/10/03 13:36:28;;;;;;;5.05;1.10;;;;;;;;;;5029795;28;20045;-64
2022/10/03 13:39:12;;;;;;;7.38;1.52;;;;;;;;;;5030974;28;20045;-63
2022/10/03 13:41:58;;;;;;;7.75;1.25;;;;;;;;;;5030930;28;20045;-63
2022/10/03 13:44:49;;;;;;;5.18;0.98;;;;;;;;;;5030997;28;20124;-63
2022/10/03 13:47:33;;;;;;;7.30;1.50;;;;;;;;;;5037090;28;20080;-64
2022/10/03 13:50:00;;;;;;;6.72;1.02;;;;;;;;;;5050682;28;20052;-64
2022/10/03 13:52:35;;;;;;;4.82;1.20;;;;;;;;;;5049747;28;20033;-62
2022/10/03 13:55:04;;;;;;;7.80;1.45;;;;;;;;;;5051066;28;20040;-63
2022/10/03 13:57:37;;;;;;;4.57;0.85;;;;;;;;;;5049870;28;20037;-63
2022/10/03 14:00:09;;;;;;;6.07;1.17;;;;;;;;;;5051021;28;20044;-63
2022/10/03 14:02:44;;;;;;;5.53;1.38;;;;;;;;;;5050694;28;20078;-63
2022/10/03 14:05:30;;;;;;;6.88;1.10;;;;;;;;;;5052877;28;20471;-63
2022/10/03 14:08:15;;;;;;;5.05;1.23;;;;;;;;;;5053762;28;20080;-63
2022/10/03 14:10:45;;;;;;;6.18;1.17;;;;;;;;;;5054769;28;20091;-63
2022/10/03 14:13:31;;;;;;;5.88;1.08;;;;;;;;;;5054685;28;20503;-63
2022/10/03 14:16:19;;;;;;;6.70;1.20;;;;;;;;;;5054409;28;20048;-62
2022/10/03 14:18:57;;;;;;;5.45;1.10;;;;;;;;;;5054526;28;20099;-63
2022/10/03 14:21:43;;;;;;;4.72;1.00;;;;;;;;;;5054516;28;20043;-63
2022/10/03 14:24:19;;;;;;;6.90;0.90;;;;;;;;;;5079638;22;20056;-65
2022/10/03 14:26:45;;;;;;;5.43;1.10;;;;;;;;;;5071243;28;20657;-65
2022/10/03 14:29:14;;;;;;;4.75;1.25;;;;;;;;;;5070963;28;20183;-65
2022/10/03 14:31:45;;;;;;;7.78;1.27;;;;;;;;;;5069128;28;20044;-65
2022/10/03 14:34:29;;;;;;;4.63;0.80;;;;;;;;;;5065424;28;20040;-66
2022/10/03 14:37:08;;;;;;;4.20;1.48;;;;;;;;;;5050901;28;20056;-66
2022/10/03 14:39:37;;;;;;;4.50;1.38;;;;;;;;;;5043131;28;20052;-66
2022/10/03 14:42:12;;;;;;;5.03;1.00;;;;;;;;;;5048701;28;20033;-66
2022/10/03 14:44:40;;;;;;;8.63;1.13;;;;;;;;;;5053795;28;20167;-65
2022/10/03 14:47:10;;;;;;;4.38;0.80;;;;;;;;;;5043317;28;20056;-65
2022/10/03 14:49:39;;;;;;;3.85;0.73;;;;;;;;;;5049120;28;20122;-66
2022/10/03 14:52:07;;;;;;;6.57;1.10;;;;;;;;;;5054189;28;20041;-65
2022/10/03 14:54:36;;;;;;;5.63;1.10;;;;;;;;;;5048153;28;20045;-65
2022/10/03 14:57:12;;;;;;;4.15;0.93;;;;;;;;;;5043981;28;20037;-65
2022/10/03 14:59:38;;;;;;;5.25;0.90;;;;;;;;;;5039341;28;20040;-66
2022/10/03 15:02:19;;;;;;;5.60;0.95;;;;;;;;;;5046208;28;20071;-65
2022/10/03 15:04:46;;;;;;;8.10;1.17;;;;;;;;;;5048263;28;20041;-65
2022/10/03 15:07:13;;;;;;;5.68;0.98;;;;;;;;;;5051072;28;20048;-65
2022/10/03 15:09:39;;;;;;;6.68;1.08;;;;;;;;;;5048075;28;20041;-65
2022/10/03 15:12:12;;;;;;;5.85;1.20;;;;;;;;;;5053958;28;20510;-65
2022/10/03 15:14:42;;;;;;;7.13;0.80;;;;;;;;;;5046914;28;20053;-65
2022/10/03 15:17:21;;;;;;;5.68;1.00;;;;;;;;;;5051962;28;20080;-65
2022/10/03 15:19:58;;;;;;;9.02;1.73;;;;;;;;;;5053325;28;20052;-65
2022/10/03 15:22:35;;;;;;;4.68;1.23;;;;;;;;;;5054269;28;20086;-65
2022/10/03 15:25:07;;;;;;;3.00;0.82;;;;;;;;;;5051434;28;20072;-66
2022/10/03 15:27:34;;;;;;;4.70;1.02;;;;;;;;;;5052891;28;20045;-66
2022/10/03 15:30:03;;;;;;;6.45;1.15;;;;;;;;;;5050689;28;20483;-65
2022/10/03 15:32:33;;;;;;;5.45;0.90;;;;;;;;;;5053325;28;20094;-65
2022/10/03 15:35:00;;;;;;;5.60;0.85;;;;;;;;;;5049579;28;20037;-66
2022/10/03 15:37:32;;;;;;;4.35;0.90;;;;;;;;;;5045310;28;20399;-65
2022/10/03 15:40:04;;;;;;;3.85;0.95;;;;;;;;;;5038727;28;20521;-66